createdAt,value
2018-07-23T00:00:28.496Z,0.00
2018-07-23T00:01:28.534Z,0.00
2018-07-23T00:02:28.572Z,0.00
2018-07-23T00:03:28.617Z,0.00
2018-07-23T00:04:28.653Z,0.00
2018-07-23T00:05:28.696Z,0.00
2018-07-23T00:06:28.731Z,0.00
2018-07-23T00:07:28.773Z,0.00
2018-07-23T00:08:28.811Z,0.00
2018-07-23T00:09:28.847Z,0.00
2018-07-23T00:10:28.893Z,0.00
2018-07-23T00:11:28.927Z,0.00
2018-07-23T00:12:28.967Z,0.00
2018-07-23T00:13:29.224Z,0.00
2018-07-23T00:14:29.045Z,0.00
2018-07-23T00:15:29.084Z,0.00
2018-07-23T00:16:29.126Z,0.00
2018-07-23T00:17:29.166Z,0.00
2018-07-23T00:18:29.201Z,0.00
2018-07-23T00:19:29.241Z,0.00
2018-07-23T00:20:29.280Z,0.00
2018-07-23T00:21:29.318Z,0.00
2018-07-23T00:22:29.360Z,0.00
2018-07-23T00:23:29.395Z,0.00
2018-07-23T00:24:29.435Z,0.00
2018-07-23T00:25:29.525Z,0.00
2018-07-23T00:26:29.511Z,0.00
2018-07-23T00:27:29.552Z,0.00
2018-07-23T00:28:29.590Z,0.00
2018-07-23T00:29:29.629Z,0.00
2018-07-23T00:30:29.669Z,0.00
2018-07-23T00:31:29.708Z,0.00
2018-07-23T00:32:29.746Z,0.00
2018-07-23T00:33:29.785Z,0.00
2018-07-23T00:34:29.824Z,0.00
2018-07-23T00:35:29.863Z,0.00
2018-07-23T00:36:29.903Z,0.00
2018-07-23T00:37:29.950Z,0.00
2018-07-23T00:38:29.980Z,0.00
2018-07-23T00:39:30.024Z,0.00
2018-07-23T00:40:30.062Z,0.00
2018-07-23T00:41:30.102Z,0.00
2018-07-23T00:42:30.139Z,0.00
2018-07-23T00:43:30.176Z,0.00
2018-07-23T00:44:30.218Z,0.00
2018-07-23T00:45:30.253Z,0.00
2018-07-23T00:46:30.291Z,0.00
2018-07-23T00:47:30.334Z,0.00
2018-07-23T00:48:30.369Z,0.00
2018-07-23T00:49:30.410Z,0.00
2018-07-23T00:50:30.448Z,0.00
2018-07-23T00:51:30.487Z,0.00
2018-07-23T00:52:30.565Z,0.00
2018-07-23T00:53:30.563Z,0.00
2018-07-23T00:54:30.615Z,0.00
2018-07-23T00:55:30.640Z,0.00
2018-07-23T00:56:30.687Z,0.00
2018-07-23T00:57:30.717Z,0.00
2018-07-23T00:58:30.768Z,0.00
2018-07-23T00:59:30.795Z,0.00
2018-07-23T01:00:30.836Z,0.00
2018-07-23T01:01:30.879Z,0.00
2018-07-23T01:02:30.914Z,0.00
2018-07-23T01:03:30.960Z,0.00
2018-07-23T01:04:30.991Z,0.00
2018-07-23T01:05:31.029Z,0.00
2018-07-23T01:06:31.071Z,0.00
2018-07-23T01:07:31.108Z,0.00
2018-07-23T01:08:31.157Z,0.00
2018-07-23T01:09:31.185Z,0.00
2018-07-23T01:10:31.224Z,0.00
2018-07-23T01:11:31.276Z,0.00
2018-07-23T01:12:31.304Z,0.00
2018-07-23T01:13:31.339Z,0.00
2018-07-23T01:14:31.379Z,0.00
2018-07-23T01:15:31.424Z,0.00
2018-07-23T01:16:31.469Z,0.00
2018-07-23T01:17:31.497Z,0.00
2018-07-23T01:18:31.535Z,0.00
2018-07-23T01:19:31.572Z,0.00
2018-07-23T01:20:31.621Z,0.00
2018-07-23T01:21:31.658Z,0.00
2018-07-23T01:22:31.689Z,0.00
2018-07-23T01:23:31.727Z,0.00
2018-07-23T01:24:31.766Z,0.00
2018-07-23T01:25:31.804Z,0.00
2018-07-23T01:26:31.843Z,0.00
2018-07-23T01:27:31.881Z,0.00
2018-07-23T01:28:31.922Z,0.00
2018-07-23T01:29:31.958Z,0.00
2018-07-23T01:30:32.007Z,0.00
2018-07-23T01:31:32.038Z,0.00
2018-07-23T01:32:32.075Z,0.00
2018-07-23T01:33:32.120Z,0.00
2018-07-23T01:34:32.152Z,0.00
2018-07-23T01:35:32.191Z,0.00
2018-07-23T01:36:32.231Z,0.00
2018-07-23T01:37:32.267Z,0.00
2018-07-23T01:38:32.309Z,0.00
2018-07-23T01:39:32.346Z,0.00
2018-07-23T01:40:32.385Z,0.00
2018-07-23T01:41:32.422Z,0.00
2018-07-23T01:42:32.466Z,0.00
2018-07-23T01:43:32.501Z,0.00
2018-07-23T01:44:32.545Z,0.00
2018-07-23T01:45:32.580Z,0.00
2018-07-23T01:46:32.620Z,0.00
2018-07-23T01:47:32.657Z,0.00
2018-07-23T01:48:32.695Z,0.00
2018-07-23T01:49:32.732Z,0.00
2018-07-23T01:50:32.770Z,0.00
2018-07-23T01:51:32.810Z,0.00
2018-07-23T01:52:32.850Z,0.00
2018-07-23T01:53:32.887Z,0.00
2018-07-23T01:54:32.925Z,0.00
2018-07-23T01:55:32.964Z,0.00
2018-07-23T01:56:33.002Z,0.00
2018-07-23T01:57:33.049Z,0.00
2018-07-23T01:58:33.080Z,0.00
2018-07-23T01:59:33.117Z,0.00
2018-07-23T02:00:33.158Z,0.00
2018-07-23T02:01:33.203Z,0.00
2018-07-23T02:02:33.234Z,0.00
2018-07-23T02:03:33.273Z,0.00
2018-07-23T02:04:33.311Z,0.00
2018-07-23T02:05:33.351Z,0.00
2018-07-23T02:06:33.390Z,0.00
2018-07-23T02:07:33.436Z,0.00
2018-07-23T02:08:33.474Z,0.00
2018-07-23T02:09:33.509Z,0.00
2018-07-23T02:10:33.543Z,0.00
2018-07-23T02:11:33.583Z,0.00
2018-07-23T02:12:33.620Z,0.00
2018-07-23T02:13:33.660Z,0.00
2018-07-23T02:14:33.698Z,0.00
2018-07-23T02:15:33.737Z,0.00
2018-07-23T02:16:33.775Z,0.00
2018-07-23T02:17:33.814Z,0.00
2018-07-23T02:18:33.853Z,0.00
2018-07-23T02:19:33.890Z,0.00
2018-07-23T02:20:33.929Z,0.00
2018-07-23T02:21:33.964Z,0.00
2018-07-23T02:22:34.005Z,0.00
2018-07-23T02:23:34.042Z,0.00
2018-07-23T02:24:34.082Z,0.00
2018-07-23T02:25:34.119Z,0.00
2018-07-23T02:26:34.157Z,0.00
2018-07-23T02:27:34.196Z,0.00
2018-07-23T02:28:34.234Z,0.00
2018-07-23T02:29:34.272Z,0.00
2018-07-23T02:30:34.311Z,0.00
2018-07-23T02:31:34.350Z,0.00
2018-07-23T02:32:34.391Z,0.00
2018-07-23T02:33:34.427Z,0.00
2018-07-23T02:34:34.524Z,0.00
2018-07-23T02:35:34.507Z,0.00
2018-07-23T02:36:34.542Z,0.00
2018-07-23T02:37:34.579Z,0.00
2018-07-23T02:38:34.619Z,0.00
2018-07-23T02:39:34.658Z,0.00
2018-07-23T02:40:34.701Z,0.00
2018-07-23T02:41:34.734Z,0.00
2018-07-23T02:42:34.774Z,0.00
2018-07-23T02:43:34.811Z,0.00
2018-07-23T02:44:34.850Z,0.00
2018-07-23T02:45:34.888Z,0.00
2018-07-23T02:46:34.930Z,0.00
2018-07-23T02:47:34.965Z,0.00
2018-07-23T02:48:35.006Z,0.00
2018-07-23T02:49:35.047Z,4.00
2018-07-23T02:50:35.080Z,4.00
2018-07-23T02:51:35.131Z,0.00
2018-07-23T02:52:35.161Z,0.00
2018-07-23T02:53:35.195Z,4.00
2018-07-23T02:54:35.235Z,4.00
2018-07-23T02:55:35.276Z,0.00
2018-07-23T02:56:35.310Z,4.00
2018-07-23T02:57:35.347Z,4.00
2018-07-23T02:58:35.389Z,4.00
2018-07-23T02:59:35.452Z,8.00
2018-07-23T03:00:35.464Z,8.00
2018-07-23T03:01:35.500Z,4.00
2018-07-23T03:02:35.543Z,4.00
2018-07-23T03:03:35.579Z,12.00
2018-07-23T03:04:35.618Z,12.00
2018-07-23T03:05:35.653Z,12.00
2018-07-23T03:06:35.696Z,12.00
2018-07-23T03:07:35.732Z,16.00
2018-07-23T03:08:35.771Z,16.00
2018-07-23T03:09:35.819Z,20.00
2018-07-23T03:10:35.845Z,20.00
2018-07-23T03:11:35.891Z,24.00
2018-07-23T03:12:35.924Z,28.00
2018-07-23T03:13:35.962Z,32.00
2018-07-23T03:14:36.004Z,36.00
2018-07-23T03:15:36.043Z,44.00
2018-07-23T03:16:36.080Z,48.00
2018-07-23T03:17:36.115Z,56.00
2018-07-23T03:18:36.154Z,64.00
2018-07-23T03:19:36.194Z,72.00
2018-07-23T03:20:36.236Z,80.00
2018-07-23T03:21:36.314Z,88.00
2018-07-23T03:22:36.307Z,100.00
2018-07-23T03:23:36.349Z,112.00
2018-07-23T03:24:36.391Z,124.00
2018-07-23T03:25:36.424Z,136.00
2018-07-23T03:26:36.465Z,152.00
2018-07-23T03:27:36.499Z,168.00
2018-07-23T03:28:36.538Z,188.00
2018-07-23T03:29:36.587Z,204.00
2018-07-23T03:30:36.615Z,224.00
2018-07-23T03:31:36.656Z,244.00
2018-07-23T03:32:36.699Z,264.00
2018-07-23T03:33:36.732Z,288.00
2018-07-23T03:34:36.775Z,312.00
2018-07-23T03:35:36.808Z,340.00
2018-07-23T03:36:36.854Z,364.00
2018-07-23T03:37:36.886Z,396.00
2018-07-23T03:38:36.924Z,428.00
2018-07-23T03:39:36.965Z,464.00
2018-07-23T03:40:37.003Z,500.00
2018-07-23T03:41:37.039Z,540.00
2018-07-23T03:42:37.077Z,584.00
2018-07-23T03:43:37.116Z,624.00
2018-07-23T03:44:37.162Z,664.00
2018-07-23T03:45:37.194Z,708.00
2018-07-23T03:46:37.231Z,752.00
2018-07-23T03:47:37.272Z,804.00
2018-07-23T03:48:37.311Z,860.00
2018-07-23T03:49:37.349Z,916.00
2018-07-23T03:50:37.387Z,976.00
2018-07-23T03:51:37.426Z,1040.00
2018-07-23T03:52:37.467Z,1108.00
2018-07-23T03:53:37.503Z,1172.00
2018-07-23T03:54:37.538Z,1240.00
2018-07-23T03:55:37.577Z,1308.00
2018-07-23T03:56:37.617Z,1376.00
2018-07-23T03:57:37.653Z,1444.00
2018-07-23T03:58:37.692Z,1520.00
2018-07-23T03:59:37.732Z,1588.00
2018-07-23T04:00:37.776Z,1664.00
2018-07-23T04:01:37.816Z,1740.00
2018-07-23T04:02:37.845Z,1820.00
2018-07-23T04:03:37.940Z,1904.00
2018-07-23T04:04:37.923Z,1988.00
2018-07-23T04:05:37.961Z,2064.00
2018-07-23T04:06:37.998Z,2140.00
2018-07-23T04:07:38.037Z,2216.00
2018-07-23T04:08:38.076Z,2292.00
2018-07-23T04:09:38.114Z,2368.00
2018-07-23T04:10:38.178Z,2452.00
2018-07-23T04:11:38.191Z,2532.00
2018-07-23T04:12:38.229Z,2616.00
2018-07-23T04:13:38.266Z,2684.00
2018-07-23T04:14:38.306Z,2744.00
2018-07-23T04:15:38.348Z,2804.00
2018-07-23T04:16:38.385Z,2876.00
2018-07-23T04:17:38.421Z,2948.00
2018-07-23T04:18:38.465Z,3020.00
2018-07-23T04:19:38.499Z,3096.00
2018-07-23T04:20:38.538Z,3180.00
2018-07-23T04:21:38.577Z,3276.00
2018-07-23T04:22:38.615Z,3380.00
2018-07-23T04:23:38.654Z,3488.00
2018-07-23T04:24:38.692Z,3592.00
2018-07-23T04:25:38.728Z,3720.00
2018-07-23T04:26:38.769Z,3852.00
2018-07-23T04:27:38.818Z,3976.00
2018-07-23T04:28:38.847Z,4088.00
2018-07-23T04:29:38.933Z,4196.00
2018-07-23T04:30:38.920Z,4292.00
2018-07-23T04:31:38.961Z,4388.00
2018-07-23T04:32:38.997Z,4484.00
2018-07-23T04:33:39.034Z,4584.00
2018-07-23T04:34:39.076Z,4676.00
2018-07-23T04:35:39.113Z,4776.00
2018-07-23T04:36:39.152Z,4872.00
2018-07-23T04:37:39.189Z,4980.00
2018-07-23T04:38:39.228Z,5092.00
2018-07-23T04:39:39.267Z,5212.00
2018-07-23T04:40:39.310Z,5340.00
2018-07-23T04:41:39.344Z,5484.00
2018-07-23T04:42:39.382Z,5624.00
2018-07-23T04:43:39.429Z,5744.00
2018-07-23T04:44:39.461Z,5836.00
2018-07-23T04:45:39.499Z,5904.00
2018-07-23T04:46:39.537Z,5976.00
2018-07-23T04:47:39.577Z,6052.00
2018-07-23T04:48:39.614Z,6136.00
2018-07-23T04:49:39.651Z,6244.00
2018-07-23T04:50:39.729Z,6392.00
2018-07-23T04:51:39.734Z,6544.00
2018-07-23T04:52:39.769Z,6668.00
2018-07-23T04:53:39.808Z,6788.00
2018-07-23T04:54:39.846Z,6884.00
2018-07-23T04:55:39.888Z,6968.00
2018-07-23T04:56:39.952Z,7048.00
2018-07-23T04:57:39.962Z,7148.00
2018-07-23T04:58:40.000Z,7256.00
2018-07-23T04:59:40.041Z,7404.00
2018-07-23T05:00:40.087Z,7548.00
2018-07-23T05:01:40.116Z,7660.00
2018-07-23T05:02:40.157Z,7732.00
2018-07-23T05:03:40.195Z,7800.00
2018-07-23T05:04:40.233Z,7868.00
2018-07-23T05:05:40.276Z,7944.00
2018-07-23T05:06:40.311Z,8048.00
2018-07-23T05:07:40.351Z,8148.00
2018-07-23T05:08:40.417Z,8228.00
2018-07-23T05:09:40.428Z,8300.00
2018-07-23T05:10:40.468Z,8340.00
2018-07-23T05:11:40.507Z,8308.00
2018-07-23T05:12:40.546Z,8272.00
2018-07-23T05:13:40.585Z,8344.00
2018-07-23T05:14:40.624Z,8480.00
2018-07-23T05:15:40.664Z,8604.00
2018-07-23T05:16:40.706Z,8676.00
2018-07-23T05:17:40.743Z,8744.00
2018-07-23T05:18:40.782Z,8924.00
2018-07-23T05:19:40.822Z,9196.00
2018-07-23T05:20:40.862Z,9316.00
2018-07-23T05:21:40.899Z,9360.00
2018-07-23T05:22:40.939Z,9388.00
2018-07-23T05:23:40.978Z,9444.00
2018-07-23T05:24:41.020Z,9508.00
2018-07-23T05:25:41.058Z,9572.00
2018-07-23T05:26:41.098Z,9648.00
2018-07-23T05:27:41.136Z,9724.00
2018-07-23T05:28:41.179Z,9788.00
2018-07-23T05:29:41.215Z,9860.00
2018-07-23T05:30:41.254Z,9920.00
2018-07-23T05:31:41.300Z,9976.00
2018-07-23T05:32:41.334Z,10032.00
2018-07-23T05:33:41.373Z,10092.00
2018-07-23T05:34:41.412Z,10164.00
2018-07-23T05:35:41.450Z,10216.00
2018-07-23T05:36:41.494Z,10264.00
2018-07-23T05:37:41.533Z,10312.00
2018-07-23T05:38:41.570Z,10348.00
2018-07-23T05:39:41.610Z,10372.00
2018-07-23T05:40:41.649Z,10400.00
2018-07-23T05:41:41.689Z,10432.00
2018-07-23T05:42:41.729Z,10460.00
2018-07-23T05:43:41.768Z,10488.00
2018-07-23T05:44:41.808Z,10512.00
2018-07-23T05:45:41.848Z,10532.00
2018-07-23T05:46:41.898Z,10576.00
2018-07-23T05:47:41.933Z,10624.00
2018-07-23T05:48:41.967Z,10660.00
2018-07-23T05:49:42.006Z,10692.00
2018-07-23T05:50:42.047Z,10728.00
2018-07-23T05:51:42.085Z,10768.00
2018-07-23T05:52:42.128Z,10796.00
2018-07-23T05:53:42.168Z,10816.00
2018-07-23T05:54:42.207Z,10840.00
2018-07-23T05:55:42.246Z,10856.00
2018-07-23T05:56:42.294Z,10876.00
2018-07-23T05:57:42.346Z,10900.00
2018-07-23T05:58:42.371Z,10920.00
2018-07-23T05:59:42.406Z,10944.00
2018-07-23T06:00:42.445Z,10980.00
2018-07-23T06:01:42.491Z,11028.00
2018-07-23T06:02:42.523Z,11080.00
2018-07-23T06:03:42.673Z,11104.00
2018-07-23T06:04:42.603Z,11116.00
2018-07-23T06:05:42.643Z,11124.00
2018-07-23T06:06:42.727Z,11124.00
2018-07-23T06:07:42.727Z,11140.00
2018-07-23T06:08:42.763Z,11152.00
2018-07-23T06:09:42.802Z,11168.00
2018-07-23T06:10:42.843Z,11164.00
2018-07-23T06:11:42.886Z,11172.00
2018-07-23T06:12:42.927Z,11188.00
2018-07-23T06:13:42.963Z,11216.00
2018-07-23T06:14:43.003Z,11252.00
2018-07-23T06:15:43.194Z,11300.00
2018-07-23T06:16:43.085Z,11348.00
2018-07-23T06:17:43.129Z,11396.00
2018-07-23T06:18:43.165Z,11444.00
2018-07-23T06:19:43.205Z,11492.00
2018-07-23T06:20:43.246Z,11552.00
2018-07-23T06:21:43.292Z,11596.00
2018-07-23T06:22:43.327Z,11620.00
2018-07-23T06:23:43.374Z,11644.00
2018-07-23T06:24:43.407Z,11648.00
2018-07-23T06:25:43.486Z,11648.00
2018-07-23T06:26:43.495Z,11652.00
2018-07-23T06:27:43.528Z,11648.00
2018-07-23T06:28:43.571Z,11632.00
2018-07-23T06:29:43.608Z,11612.00
2018-07-23T06:30:43.652Z,11612.00
2018-07-23T06:31:43.689Z,11604.00
2018-07-23T06:32:43.729Z,11612.00
2018-07-23T06:33:43.790Z,11628.00
2018-07-23T06:34:43.809Z,11640.00
2018-07-23T06:35:43.854Z,11644.00
2018-07-23T06:36:43.900Z,11632.00
2018-07-23T06:37:43.957Z,11612.00
2018-07-23T06:38:43.973Z,11596.00
2018-07-23T06:39:44.013Z,11580.00
2018-07-23T06:40:44.057Z,11588.00
2018-07-23T06:41:44.094Z,11592.00
2018-07-23T06:42:44.145Z,11592.00
2018-07-23T06:43:44.176Z,11588.00
2018-07-23T06:44:44.217Z,11588.00
2018-07-23T06:45:44.257Z,11580.00
2018-07-23T06:46:44.341Z,11604.00
2018-07-23T06:47:44.338Z,11624.00
2018-07-23T06:48:44.378Z,11636.00
2018-07-23T06:49:44.420Z,11636.00
2018-07-23T06:50:44.460Z,11612.00
2018-07-23T06:51:44.517Z,11568.00
2018-07-23T06:52:44.547Z,11568.00
2018-07-23T06:53:44.638Z,11544.00
2018-07-23T06:54:44.628Z,11552.00
2018-07-23T06:55:44.666Z,11580.00
2018-07-23T06:56:44.708Z,11588.00
2018-07-23T06:57:44.757Z,11604.00
2018-07-23T06:58:44.797Z,11616.00
2018-07-23T06:59:44.830Z,11616.00
2018-07-23T07:00:44.875Z,11612.00
2018-07-23T07:01:44.912Z,11612.00
2018-07-23T07:02:44.958Z,11600.00
2018-07-23T07:03:44.993Z,11584.00
2018-07-23T07:04:45.034Z,11568.00
2018-07-23T07:05:45.074Z,11540.00
2018-07-23T07:06:45.117Z,11528.00
2018-07-23T07:07:45.158Z,11512.00
2018-07-23T07:08:45.199Z,11496.00
2018-07-23T07:09:45.243Z,11480.00
2018-07-23T07:10:45.281Z,11484.00
2018-07-23T07:11:45.323Z,11484.00
2018-07-23T07:12:45.365Z,11488.00
2018-07-23T07:13:45.406Z,11488.00
2018-07-23T07:14:45.450Z,11500.00
2018-07-23T07:15:45.487Z,11500.00
2018-07-23T07:16:45.530Z,11504.00
2018-07-23T07:17:45.570Z,11504.00
2018-07-23T07:18:45.624Z,11504.00
2018-07-23T07:19:45.656Z,11512.00
2018-07-23T07:20:45.696Z,11520.00
2018-07-23T07:21:45.737Z,11516.00
2018-07-23T07:22:45.780Z,11500.00
2018-07-23T07:23:45.820Z,11476.00
2018-07-23T07:24:45.863Z,11452.00
2018-07-23T07:25:45.905Z,11424.00
2018-07-23T07:26:45.954Z,11396.00
2018-07-23T07:27:45.987Z,11360.00
2018-07-23T07:28:46.028Z,11320.00
2018-07-23T07:29:46.070Z,11292.00
2018-07-23T07:30:46.111Z,11272.00
2018-07-23T07:31:46.152Z,11260.00
2018-07-23T07:32:46.202Z,11244.00
2018-07-23T07:33:46.234Z,11240.00
2018-07-23T07:34:46.327Z,11220.00
2018-07-23T07:35:46.324Z,11192.00
2018-07-23T07:36:46.361Z,11168.00
2018-07-23T07:37:46.402Z,11136.00
2018-07-23T07:38:46.444Z,11120.00
2018-07-23T07:39:46.486Z,11112.00
2018-07-23T07:40:46.531Z,11100.00
2018-07-23T07:41:46.570Z,11092.00
2018-07-23T07:42:46.612Z,11080.00
2018-07-23T07:43:46.654Z,11064.00
2018-07-23T07:44:46.694Z,11040.00
2018-07-23T07:45:46.740Z,11020.00
2018-07-23T07:46:46.779Z,11008.00
2018-07-23T07:47:46.820Z,11008.00
2018-07-23T07:48:46.861Z,11008.00
2018-07-23T07:49:46.906Z,11008.00
2018-07-23T07:50:46.948Z,11004.00
2018-07-23T07:51:46.987Z,10996.00
2018-07-23T07:52:47.032Z,10996.00
2018-07-23T07:53:47.071Z,10992.00
2018-07-23T07:54:47.119Z,10992.00
2018-07-23T07:55:47.157Z,10976.00
2018-07-23T07:56:47.198Z,10956.00
2018-07-23T07:57:47.242Z,10932.00
2018-07-23T07:58:47.308Z,10912.00
2018-07-23T07:59:47.330Z,10908.00
2018-07-23T08:00:47.364Z,10896.00
2018-07-23T08:01:47.405Z,10868.00
2018-07-23T08:02:47.450Z,10844.00
2018-07-23T08:03:47.496Z,10816.00
2018-07-23T08:04:47.536Z,10788.00
2018-07-23T08:05:47.624Z,10764.00
2018-07-23T08:06:47.669Z,10756.00
2018-07-23T08:07:47.659Z,10744.00
2018-07-23T08:08:47.702Z,10736.00
2018-07-23T08:09:47.747Z,10736.00
2018-07-23T08:10:47.785Z,10756.00
2018-07-23T08:11:47.827Z,10772.00
2018-07-23T08:12:47.870Z,10788.00
2018-07-23T08:13:47.913Z,10792.00
2018-07-23T08:14:47.955Z,10776.00
2018-07-23T08:15:48.010Z,10764.00
2018-07-23T08:16:48.046Z,10732.00
2018-07-23T08:17:48.113Z,10712.00
2018-07-23T08:18:48.136Z,10672.00
2018-07-23T08:19:48.169Z,10624.00
2018-07-23T08:20:48.209Z,10572.00
2018-07-23T08:21:48.250Z,10540.00
2018-07-23T08:22:48.294Z,10504.00
2018-07-23T08:23:48.334Z,10456.00
2018-07-23T08:24:48.386Z,10420.00
2018-07-23T08:25:48.418Z,10380.00
2018-07-23T08:26:48.462Z,10340.00
2018-07-23T08:27:48.525Z,10308.00
2018-07-23T08:28:48.545Z,10276.00
2018-07-23T08:29:48.587Z,10220.00
2018-07-23T08:30:48.630Z,10168.00
2018-07-23T08:31:48.750Z,10108.00
2018-07-23T08:32:48.716Z,10052.00
2018-07-23T08:33:48.765Z,9984.00
2018-07-23T08:34:48.799Z,9932.00
2018-07-23T08:35:48.859Z,9900.00
2018-07-23T08:36:48.884Z,9864.00
2018-07-23T08:37:48.931Z,9816.00
2018-07-23T08:38:48.969Z,9756.00
2018-07-23T08:39:49.062Z,9688.00
2018-07-23T08:40:49.058Z,9616.00
2018-07-23T08:41:49.101Z,9544.00
2018-07-23T08:42:49.139Z,9476.00
2018-07-23T08:43:49.185Z,9396.00
2018-07-23T08:44:49.229Z,9348.00
2018-07-23T08:45:49.265Z,9300.00
2018-07-23T08:46:49.311Z,9244.00
2018-07-23T08:47:49.353Z,9208.00
2018-07-23T08:48:49.397Z,9176.00
2018-07-23T08:49:49.436Z,9152.00
2018-07-23T08:50:49.484Z,9120.00
2018-07-23T08:51:49.531Z,9076.00
2018-07-23T08:52:49.565Z,9044.00
2018-07-23T08:53:49.607Z,8996.00
2018-07-23T08:54:49.650Z,8948.00
2018-07-23T08:55:49.699Z,8904.00
2018-07-23T08:56:49.735Z,8880.00
2018-07-23T08:57:49.778Z,8848.00
2018-07-23T08:58:49.820Z,8812.00
2018-07-23T08:59:49.864Z,8768.00
2018-07-23T09:00:49.911Z,8708.00
2018-07-23T09:01:49.950Z,8636.00
2018-07-23T09:02:49.992Z,8568.00
2018-07-23T09:03:50.036Z,8528.00
2018-07-23T09:04:50.088Z,8484.00
2018-07-23T09:05:50.184Z,8444.00
2018-07-23T09:06:50.172Z,8404.00
2018-07-23T09:07:50.218Z,8368.00
2018-07-23T09:08:50.295Z,8376.00
2018-07-23T09:09:50.293Z,8392.00
2018-07-23T09:10:50.337Z,8404.00
2018-07-23T09:11:50.394Z,8396.00
2018-07-23T09:12:50.422Z,8388.00
2018-07-23T09:13:50.464Z,8392.00
2018-07-23T09:14:50.526Z,8396.00
2018-07-23T09:15:50.554Z,8400.00
2018-07-23T09:16:50.595Z,8404.00
2018-07-23T09:17:50.637Z,8400.00
2018-07-23T09:18:50.680Z,8444.00
2018-07-23T09:19:50.728Z,8440.00
2018-07-23T09:20:50.764Z,8432.00
2018-07-23T09:21:50.811Z,8412.00
2018-07-23T09:22:50.851Z,8412.00
2018-07-23T09:23:50.912Z,8432.00
2018-07-23T09:24:50.942Z,8464.00
2018-07-23T09:25:50.991Z,8476.00
2018-07-23T09:26:51.023Z,8448.00
2018-07-23T09:27:51.069Z,8404.00
2018-07-23T09:28:51.108Z,8400.00
2018-07-23T09:29:51.149Z,8332.00
2018-07-23T09:30:51.198Z,8288.00
2018-07-23T09:31:51.245Z,8264.00
2018-07-23T09:32:51.286Z,8248.00
2018-07-23T09:33:51.331Z,8236.00
2018-07-23T09:34:51.375Z,8228.00
2018-07-23T09:35:51.410Z,8240.00
2018-07-23T09:36:51.455Z,8312.00
2018-07-23T09:37:51.497Z,8324.00
2018-07-23T09:38:51.539Z,8340.00
2018-07-23T09:39:51.585Z,8324.00
2018-07-23T09:40:51.626Z,8276.00
2018-07-23T09:41:51.669Z,8292.00
2018-07-23T09:42:51.718Z,8316.00
2018-07-23T09:43:51.757Z,8336.00
2018-07-23T09:44:51.804Z,8356.00
2018-07-23T09:45:51.849Z,8324.00
2018-07-23T09:46:51.887Z,8240.00
2018-07-23T09:47:51.928Z,8152.00
2018-07-23T09:48:51.977Z,8132.00
2018-07-23T09:49:52.015Z,8148.00
2018-07-23T09:50:52.058Z,8172.00
2018-07-23T09:51:52.102Z,8212.00
2018-07-23T09:52:52.147Z,8236.00
2018-07-23T09:53:52.197Z,8232.00
2018-07-23T09:54:52.232Z,8220.00
2018-07-23T09:55:52.274Z,8244.00
2018-07-23T09:56:52.317Z,8252.00
2018-07-23T09:57:52.360Z,8248.00
2018-07-23T09:58:52.414Z,8208.00
2018-07-23T09:59:52.448Z,8192.00
2018-07-23T10:00:52.490Z,8228.00
2018-07-23T10:01:52.535Z,8328.00
2018-07-23T10:02:52.607Z,8292.00
2018-07-23T10:03:52.622Z,8348.00
2018-07-23T10:04:52.666Z,8248.00
2018-07-23T10:05:52.709Z,8076.00
2018-07-23T10:06:52.753Z,7592.00
2018-07-23T10:07:52.796Z,7340.00
2018-07-23T10:08:52.840Z,7144.00
2018-07-23T10:09:52.881Z,7192.00
2018-07-23T10:10:52.965Z,7440.00
2018-07-23T10:11:52.969Z,7656.00
2018-07-23T10:12:53.015Z,7840.00
2018-07-23T10:13:53.057Z,8416.00
2018-07-23T10:14:53.101Z,8532.00
2018-07-23T10:15:53.148Z,8356.00
2018-07-23T10:16:53.191Z,8528.00
2018-07-23T10:17:53.240Z,8460.00
2018-07-23T10:18:53.275Z,8400.00
2018-07-23T10:19:53.317Z,8468.00
2018-07-23T10:20:53.362Z,8500.00
2018-07-23T10:21:53.415Z,8468.00
2018-07-23T10:22:53.455Z,8432.00
2018-07-23T10:23:53.494Z,8436.00
2018-07-23T10:24:53.817Z,8504.00
2018-07-23T10:25:53.578Z,8708.00
2018-07-23T10:26:53.624Z,9112.00
2018-07-23T10:27:53.667Z,9436.00
2018-07-23T10:28:53.711Z,9808.00
2018-07-23T10:29:53.754Z,9964.00
2018-07-23T10:30:53.799Z,9796.00
2018-07-23T10:31:53.842Z,9252.00
2018-07-23T10:32:53.896Z,9036.00
2018-07-23T10:33:53.929Z,8680.00
2018-07-23T10:34:53.974Z,8680.00
2018-07-23T10:35:54.019Z,8912.00
2018-07-23T10:36:54.062Z,8904.00
2018-07-23T10:37:54.107Z,8652.00
2018-07-23T10:38:54.152Z,8096.00
2018-07-23T10:39:54.195Z,8108.00
2018-07-23T10:40:54.258Z,8132.00
2018-07-23T10:41:54.289Z,8820.00
2018-07-23T10:42:54.325Z,9052.00
2018-07-23T10:43:54.377Z,9232.00
2018-07-23T10:44:54.415Z,9488.00
2018-07-23T10:45:54.459Z,10184.00
2018-07-23T10:46:54.502Z,10488.00
2018-07-23T10:47:54.546Z,10648.00
2018-07-23T10:48:54.597Z,10776.00
2018-07-23T10:49:54.633Z,10772.00
2018-07-23T10:50:54.722Z,10652.00
2018-07-23T10:51:54.721Z,10280.00
2018-07-23T10:52:54.765Z,9788.00
2018-07-23T10:53:54.809Z,9180.00
2018-07-23T10:54:54.852Z,9028.00
2018-07-23T10:55:54.899Z,8948.00
2018-07-23T10:56:54.943Z,8840.00
2018-07-23T10:57:54.987Z,8712.00
2018-07-23T10:58:55.037Z,8976.00
2018-07-23T10:59:55.076Z,8612.00
2018-07-23T11:00:55.120Z,7880.00
2018-07-23T11:01:55.163Z,7244.00
2018-07-23T11:02:55.218Z,7160.00
2018-07-23T11:03:55.251Z,7248.00
2018-07-23T11:04:55.299Z,7092.00
2018-07-23T11:05:55.344Z,7436.00
2018-07-23T11:06:55.387Z,8472.00
2018-07-23T11:07:55.437Z,9304.00
2018-07-23T11:08:55.473Z,9960.00
2018-07-23T11:09:55.519Z,10304.00
2018-07-23T11:10:55.564Z,9784.00
2018-07-23T11:11:55.657Z,9348.00
2018-07-23T11:12:55.652Z,9768.00
2018-07-23T11:13:55.696Z,9996.00
2018-07-23T11:14:55.747Z,10156.00
2018-07-23T11:15:55.784Z,10072.00
2018-07-23T11:16:55.828Z,10244.00
2018-07-23T11:17:55.873Z,10896.00
2018-07-23T11:18:55.967Z,11908.00
2018-07-23T11:19:55.964Z,11956.00
2018-07-23T11:20:56.007Z,11316.00
2018-07-23T11:21:56.050Z,10264.00
2018-07-23T11:22:56.096Z,10128.00
2018-07-23T11:23:56.147Z,10036.00
2018-07-23T11:24:56.187Z,9768.00
2018-07-23T11:25:56.231Z,9344.00
2018-07-23T11:26:56.276Z,8988.00
2018-07-23T11:27:56.318Z,8168.00
2018-07-23T11:28:56.399Z,8044.00
2018-07-23T11:29:56.409Z,8044.00
2018-07-23T11:30:56.454Z,8012.00
2018-07-23T11:31:56.541Z,7864.00
2018-07-23T11:32:56.545Z,7664.00
2018-07-23T11:33:56.588Z,7416.00
2018-07-23T11:34:56.633Z,7000.00
2018-07-23T11:35:56.683Z,7080.00
2018-07-23T11:36:56.729Z,7188.00
2018-07-23T11:37:56.766Z,7256.00
2018-07-23T11:38:56.815Z,7312.00
2018-07-23T11:39:56.856Z,7028.00
2018-07-23T11:40:56.901Z,7200.00
2018-07-23T11:41:56.947Z,6508.00
2018-07-23T11:42:56.990Z,6292.00
2018-07-23T11:43:57.035Z,6248.00
2018-07-23T11:44:57.086Z,6292.00
2018-07-23T11:45:57.123Z,6108.00
2018-07-23T11:46:57.168Z,6268.00
2018-07-23T11:47:57.213Z,6460.00
2018-07-23T11:48:57.310Z,6712.00
2018-07-23T11:49:57.307Z,7316.00
2018-07-23T11:50:57.352Z,7676.00
2018-07-23T11:51:57.390Z,7904.00
2018-07-23T11:52:57.445Z,8076.00
2018-07-23T11:53:57.480Z,8296.00
2018-07-23T11:54:57.525Z,8444.00
2018-07-23T11:55:57.568Z,8720.00
2018-07-23T11:56:57.627Z,8564.00
2018-07-23T11:57:57.658Z,8528.00
2018-07-23T11:58:57.703Z,8016.00
2018-07-23T11:59:57.752Z,7424.00
2018-07-23T12:00:57.801Z,6812.00
2018-07-23T12:01:57.840Z,6248.00
2018-07-23T12:02:57.882Z,6052.00
2018-07-23T12:03:57.927Z,6256.00
2018-07-23T12:04:57.970Z,6400.00
2018-07-23T12:05:58.012Z,6484.00
2018-07-23T12:06:58.058Z,6540.00
2018-07-23T12:07:58.102Z,6548.00
2018-07-23T12:08:58.148Z,6620.00
2018-07-23T12:09:58.191Z,6652.00
2018-07-23T12:10:58.236Z,6548.00
2018-07-23T12:11:58.384Z,6340.00
2018-07-23T12:12:58.325Z,6240.00
2018-07-23T12:13:58.368Z,6316.00
2018-07-23T12:14:58.421Z,6544.00
2018-07-23T12:15:58.461Z,6844.00
2018-07-23T12:16:58.511Z,7096.00
2018-07-23T12:17:58.545Z,7904.00
2018-07-23T12:18:58.590Z,8168.00